sensor_id;sensor_type;location;lat;lon;timestamp;pressure;altitude;pressure_sealevel;temperature;humidity
6034;BME280;3045;43.226;27.858;2022-12-01T00:00:52;2583.66;;;3.48;100.00
6034;BME280;3045;43.226;27.858;2022-12-01T00:03:20;1952.16;;;3.57;100.00
6034;BME280;3045;43.226;27.858;2022-12-01T00:05:47;2584.06;;;3.53;100.00
6034;BME280;3045;43.226;27.858;2022-12-01T00:08:23;2269.31;;;3.69;100.00
6034;BME280;3045;43.226;27.858;2022-12-01T00:10:52;2269.88;;;3.76;100.00
6034;BME280;3045;43.226;27.858;2022-12-01T00:13:17;2902.38;;;3.75;100.00
6034;BME280;3045;43.226;27.858;2022-12-01T00:15:44;3534.38;;;3.69;100.00
6034;BME280;3045;43.226;27.858;2022-12-01T00:18:11;2585.81;;;3.72;100.00
6034;BME280;3045;43.226;27.858;2022-12-01T00:20:38;2584.84;;;3.61;100.00
6034;BME280;3045;43.226;27.858;2022-12-01T00:23:05;3217.25;;;3.61;100.00
6034;BME280;3045;43.226;27.858;2022-12-01T00:25:32;2900.31;;;3.54;100.00
6034;BME280;3045;43.226;27.858;2022-12-01T00:28:01;2267.19;;;3.44;100.00
6034;BME280;3045;43.226;27.858;2022-12-01T00:30:28;1634.69;;;3.39;100.00
6034;BME280;3045;43.226;27.858;2022-12-01T00:32:55;1951.13;;;3.44;100.00
6034;BME280;3045;43.226;27.858;2022-12-01T00:35:22;1634.59;;;3.38;100.00
6034;BME280;3045;43.226;27.858;2022-12-01T00:37:49;1003.47;;;3.50;100.00
6034;BME280;3045;43.226;27.858;2022-12-01T00:40:16;1950.28;;;3.34;100.00
6034;BME280;3045;43.226;27.858;2022-12-01T00:42:43;1636.03;;;3.57;100.00
6034;BME280;3045;43.226;27.858;2022-12-01T00:45:12;1952.56;;;3.62;100.00
6034;BME280;3045;43.226;27.858;2022-12-01T00:47:39;1952.97;;;3.67;100.00
6034;BME280;3045;43.226;27.858;2022-12-01T00:50:07;3217.19;;;3.60;100.00
6034;BME280;3045;43.226;27.858;2022-12-01T00:52:34;2585.53;;;3.69;100.00
6034;BME280;3045;43.226;27.858;2022-12-01T00:55:01;2901.50;;;3.66;100.00
6034;BME280;3045;43.226;27.858;2022-12-01T00:57:28;1636.72;;;3.66;100.00
6034;BME280;3045;43.226;27.858;2022-12-01T00:59:55;1320.78;;;3.68;100.00
6034;BME280;3045;43.226;27.858;2022-12-01T01:02:23;1953.38;;;3.72;100.00
6034;BME280;3045;43.226;27.858;2022-12-01T01:04:50;1321.91;;;3.84;100.00
6034;BME280;3045;43.226;27.858;2022-12-01T01:07:17;2270.44;;;3.82;100.00
6034;BME280;3045;43.226;27.858;2022-12-01T01:09:44;1638.56;;;3.90;100.00
6034;BME280;3045;43.226;27.858;2022-12-01T01:12:11;2269.84;;;3.75;100.00
6034;BME280;3045;43.226;27.858;2022-12-01T01:14:38;1321.91;;;3.84;100.00
6034;BME280;3045;43.226;27.858;2022-12-01T01:17:05;688.78;;;3.71;100.00
6034;BME280;3045;43.226;27.858;2022-12-01T01:19:34;1318.63;;;3.38;100.00
6034;BME280;3045;43.226;27.858;2022-12-01T01:22:01;1004.91;;;3.72;100.00
6034;BME280;3045;43.226;27.858;2022-12-01T01:24:28;372.91;;;3.74;100.00
6034;BME280;3045;43.226;27.858;2022-12-01T01:26:55;56.94;;;3.76;100.00
6034;BME280;3045;43.226;27.858;2022-12-01T01:29:22;-574.81;;;3.81;100.00
6034;BME280;3045;43.226;27.858;2022-12-01T01:31:52;-890.81;;;3.81;100.00
6034;BME280;3045;43.226;27.858;2022-12-01T01:34:19;57.06;;;3.78;100.00
6034;BME280;3045;43.226;27.858;2022-12-01T01:36:47;56.59;;;3.68;100.00
6034;BME280;3045;43.226;27.858;2022-12-01T01:39:14;-891.09;;;3.73;100.00
6034;BME280;3045;43.226;27.858;2022-12-01T01:41:41;-891.09;;;3.73;100.00
6034;BME280;3045;43.226;27.858;2022-12-01T01:44:39;-1206.84;;;3.78;100.00
6034;BME280;3045;43.226;27.858;2022-12-01T01:47:12;-259.16;;;3.74;100.00
6034;BME280;3045;43.226;27.858;2022-12-01T01:49:40;-575.22;;;3.72;100.00
6034;BME280;3045;43.226;27.858;2022-12-01T01:52:09;56.66;;;3.70;100.00
6034;BME280;3045;43.226;27.858;2022-12-01T01:54:39;-890.97;;;3.76;100.00
6034;BME280;3045;43.226;27.858;2022-12-01T01:57:09;56.78;;;3.72;100.00
6034;BME280;3045;43.226;27.858;2022-12-01T01:59:41;-259.09;;;3.75;100.00
6034;BME280;3045;43.226;27.858;2022-12-01T02:02:10;-575.09;;;3.74;100.00
6034;BME280;3045;43.226;27.858;2022-12-01T02:04:39;688.25;;;3.62;100.00
6034;BME280;3045;43.226;27.858;2022-12-01T02:07:07;56.72;;;3.71;100.00
6034;BME280;3045;43.226;27.858;2022-12-01T02:09:35;-259.09;;;3.75;100.00
6034;BME280;3045;43.226;27.858;2022-12-01T02:12:11;-575.09;;;3.74;100.00
6034;BME280;3045;43.226;27.858;2022-12-01T02:14:58;-891.44;;;3.62;100.00
6034;BME280;3045;43.226;27.858;2022-12-01T02:17:33;-575.28;;;3.70;100.00
6034;BME280;3045;43.226;27.858;2022-12-01T02:20:47;-575.28;;;3.70;100.00
6034;BME280;3045;43.226;27.858;2022-12-01T02:23:48;-891.31;;;3.66;100.00
6034;BME280;3045;43.226;27.858;2022-12-01T02:26:32;-575.59;;;3.62;100.00
6034;BME280;3045;43.226;27.858;2022-12-01T02:32:10;54.41;;;3.25;100.00
6034;BME280;3045;43.226;27.858;2022-12-01T02:34:45;55.06;;;3.38;100.00
6034;BME280;3045;43.226;27.858;2022-12-01T02:37:22;-260.44;;;3.45;100.00
6034;BME280;3045;43.226;27.858;2022-12-01T02:39:54;-260.63;;;3.41;100.00
6034;BME280;3045;43.226;27.858;2022-12-01T02:42:30;55.09;;;3.38;100.00
6034;BME280;3045;43.226;27.858;2022-12-01T02:45:29;1318.25;;;3.32;100.00
6034;BME280;3045;43.226;27.858;2022-12-01T02:48:01;1949.88;;;3.29;100.00
6034;BME280;3045;43.226;27.858;2022-12-01T02:50:32;2897.03;;;3.19;100.00
6034;BME280;3045;43.226;27.858;2022-12-01T02:53:02;2897.13;;;3.20;100.00
6034;BME280;3045;43.226;27.858;2022-12-01T02:55:31;3843.25;;;3.02;100.00
6034;BME280;3045;43.226;27.858;2022-12-01T02:57:58;3844.31;;;3.11;100.00
6034;BME280;3045;43.226;27.858;2022-12-01T03:00:25;2896.88;;;3.18;100.00
6034;BME280;3045;43.226;27.858;2022-12-01T03:03:12;3529.13;;;3.19;100.00
6034;BME280;3045;43.226;27.858;2022-12-01T03:05:49;4160.25;;;3.10;100.00
6034;BME280;3045;43.226;27.858;2022-12-01T03:08:24;4476.31;;;3.10;100.00
6034;BME280;3045;43.226;27.858;2022-12-01T03:10:56;4160.44;;;3.12;100.00
6034;BME280;3045;43.226;27.858;2022-12-01T03:13:32;4475.94;;;3.07;100.00
6034;BME280;3045;43.226;27.858;2022-12-01T03:16:08;5106.66;;;2.95;100.00
6034;BME280;3045;43.226;27.858;2022-12-01T03:18:38;4476.19;;;3.09;100.00
6034;BME280;3045;43.226;27.858;2022-12-01T03:21:09;3211.59;;;3.05;100.00
6034;BME280;3045;43.226;27.858;2022-12-01T03:23:41;4792.56;;;3.11;100.00
6034;BME280;3045;43.226;27.858;2022-12-01T03:26:13;5738.72;;;2.94;100.00
6034;BME280;3045;43.226;27.858;2022-12-01T03:28:46;6372.22;;;3.01;100.00
6034;BME280;3045;43.226;27.858;2022-12-01T03:31:19;5739.66;;;3.00;100.00
6034;BME280;3045;43.226;27.858;2022-12-01T03:33:54;5738.78;;;2.94;100.00
6034;BME280;3045;43.226;27.858;2022-12-01T03:36:26;5419.94;;;2.74;100.00
6034;BME280;3045;43.226;27.858;2022-12-01T03:38:57;4792.00;;;3.06;100.00
6034;BME280;3045;43.226;27.858;2022-12-01T03:41:30;4476.84;;;3.14;100.00
6034;BME280;3045;43.226;27.858;2022-12-01T03:44:04;4476.91;;;3.15;100.00
6034;BME280;3045;43.226;27.858;2022-12-01T03:46:38;4475.75;;;3.05;100.00
6034;BME280;3045;43.226;27.858;2022-12-01T03:49:11;5110.06;;;3.21;100.00
6034;BME280;3045;43.226;27.858;2022-12-01T03:51:43;4792.81;;;3.13;100.00
6034;BME280;3045;43.226;27.858;2022-12-01T03:54:18;6055.19;;;2.96;100.00
6034;BME280;3045;43.226;27.858;2022-12-01T03:56:51;5742.81;;;3.22;100.00
6034;BME280;3045;43.226;27.858;2022-12-01T03:59:20;4478.34;;;3.27;100.00
6034;BME280;3045;43.226;27.858;2022-12-01T04:01:48;5744.16;;;3.32;100.00
6034;BME280;3045;43.226;27.858;2022-12-01T04:04:18;5111.06;;;3.29;100.00
6034;BME280;3045;43.226;27.858;2022-12-01T04:06:47;4478.88;;;3.31;100.00
6034;BME280;3045;43.226;27.858;2022-12-01T04:09:15;3530.28;;;3.31;100.00
6034;BME280;3045;43.226;27.858;2022-12-01T04:11:42;3530.84;;;3.36;100.00
6034;BME280;3045;43.226;27.858;2022-12-01T04:14:26;2899.03;;;3.40;100.00
6034;BME280;3045;43.226;27.858;2022-12-01T04:16:53;2899.44;;;3.45;100.00
6034;BME280;3045;43.226;27.858;2022-12-01T04:19:22;2898.97;;;3.40;100.00
6034;BME280;3045;43.226;27.858;2022-12-01T04:21:49;1950.84;;;3.41;100.00
6034;BME280;3045;43.226;27.858;2022-12-01T04:24:16;3215.00;;;3.39;100.00
6034;BME280;3045;43.226;27.858;2022-12-01T04:26:43;1951.22;;;3.45;100.00
6034;BME280;3045;43.226;27.858;2022-12-01T04:29:11;1635.75;;;3.53;100.00
6034;BME280;3045;43.226;27.858;2022-12-01T04:31:39;1951.03;;;3.43;100.00
6034;BME280;3045;43.226;27.858;2022-12-01T04:34:06;1635.91;;;3.55;100.00
6034;BME280;3045;43.226;27.858;2022-12-01T04:36:35;1320.34;;;3.62;100.00
6034;BME280;3045;43.226;27.858;2022-12-01T04:39:02;1320.66;;;3.66;100.00
6034;BME280;3045;43.226;27.858;2022-12-01T04:41:29;1320.59;;;3.65;100.00
6034;BME280;3045;43.226;27.858;2022-12-01T04:43:56;1004.75;;;3.69;100.00
6034;BME280;3045;43.226;27.858;2022-12-01T04:46:24;1952.03;;;3.55;100.00
6034;BME280;3045;43.226;27.858;2022-12-01T04:48:51;1635.44;;;3.49;100.00
6034;BME280;3045;43.226;27.858;2022-12-01T04:51:18;1318.78;;;3.40;100.00
6034;BME280;3045;43.226;27.858;2022-12-01T04:53:47;687.00;;;3.41;100.00
6034;BME280;3045;43.226;27.858;2022-12-01T04:56:14;54.94;;;3.35;100.00
6034;BME280;3045;43.226;27.858;2022-12-01T04:58:41;686.38;;;3.31;100.00
6034;BME280;3045;43.226;27.858;2022-12-01T05:01:11;370.63;;;3.33;100.00
6034;BME280;3045;43.226;27.858;2022-12-01T05:03:39;686.72;;;3.37;100.00
6034;BME280;3045;43.226;27.858;2022-12-01T05:06:09;1002.47;;;3.34;100.00
6034;BME280;3045;43.226;27.858;2022-12-01T05:08:36;1318.34;;;3.34;100.00
6034;BME280;3045;43.226;27.858;2022-12-01T05:11:05;687.22;;;3.45;100.00
6034;BME280;3045;43.226;27.858;2022-12-01T05:13:33;1950.34;;;3.35;100.00
6034;BME280;3045;43.226;27.858;2022-12-01T05:16:04;1950.22;;;3.33;100.00
6034;BME280;3045;43.226;27.858;2022-12-01T05:18:31;1949.88;;;3.29;100.00
6034;BME280;3045;43.226;27.858;2022-12-01T05:20:58;1949.63;;;3.26;100.00
6034;BME280;3045;43.226;27.858;2022-12-01T05:23:25;686.28;;;3.30;100.00
6034;BME280;3045;43.226;27.858;2022-12-01T05:25:52;686.03;;;3.25;100.00
6034;BME280;3045;43.226;27.858;2022-12-01T05:28:23;1001.16;;;3.14;100.00
6034;BME280;3045;43.226;27.858;2022-12-01T05:30:52;1632.03;;;3.04;100.00
6034;BME280;3045;43.226;27.858;2022-12-01T05:33:19;1632.34;;;3.08;100.00
6034;BME280;3045;43.226;27.858;2022-12-01T05:35:47;1632.34;;;3.08;100.00
6034;BME280;3045;43.226;27.858;2022-12-01T05:38:14;1631.97;;;3.03;100.00
6034;BME280;3045;43.226;27.858;2022-12-01T05:40:42;1947.53;;;3.00;100.00
6034;BME280;3045;43.226;27.858;2022-12-01T05:43:09;1947.25;;;2.96;100.00
6034;BME280;3045;43.226;27.858;2022-12-01T05:45:37;2262.13;;;2.85;100.00
6034;BME280;3045;43.226;27.858;2022-12-01T05:48:05;2577.31;;;2.79;100.00
6034;BME280;3045;43.226;27.858;2022-12-01T05:50:32;2893.41;;;2.82;100.00
6034;BME280;3045;43.226;27.858;2022-12-01T05:53:03;2262.69;;;2.92;100.00
6034;BME280;3045;43.226;27.858;2022-12-01T05:55:31;1631.72;;;2.99;100.00
6034;BME280;3045;43.226;27.858;2022-12-01T05:57:59;2895.34;;;3.02;100.00
6034;BME280;3045;43.226;27.858;2022-12-01T06:00:26;2896.25;;;3.11;100.00
6034;BME280;3045;43.226;27.858;2022-12-01T06:02:55;3527.28;;;3.02;100.00
6034;BME280;3045;43.226;27.858;2022-12-01T06:05:22;3211.47;;;3.04;100.00
6034;BME280;3045;43.226;27.858;2022-12-01T06:07:49;3528.69;;;3.15;100.00
6034;BME280;3045;43.226;27.858;2022-12-01T06:10:16;2581.91;;;3.29;100.00
6034;BME280;3045;43.226;27.858;2022-12-01T06:12:43;3527.41;;;3.03;100.00
6034;BME280;3045;43.226;27.858;2022-12-01T06:15:11;4791.59;;;3.03;100.00
6034;BME280;3045;43.226;27.858;2022-12-01T06:17:38;4475.63;;;3.04;100.00
6034;BME280;3045;43.226;27.858;2022-12-01T06:20:09;5105.19;;;2.84;100.00
6034;BME280;3045;43.226;27.858;2022-12-01T06:22:36;3210.19;;;2.91;100.00
6034;BME280;3045;43.226;27.858;2022-12-01T06:25:04;1945.41;;;2.73;100.00
6034;BME280;3045;43.226;27.858;2022-12-01T06:27:31;3525.53;;;2.86;100.00
6034;BME280;3045;43.226;27.858;2022-12-01T06:29:58;2893.75;;;2.85;100.00
6034;BME280;3045;43.226;27.858;2022-12-01T06:32:25;3209.84;;;2.88;100.00
6034;BME280;3045;43.226;27.858;2022-12-01T06:34:54;2894.03;;;2.88;100.00
6034;BME280;3045;43.226;27.858;2022-12-01T06:37:22;3208.78;;;2.77;100.00
6034;BME280;3045;43.226;27.858;2022-12-01T06:39:49;2895.69;;;3.05;100.00
6034;BME280;3045;43.226;27.858;2022-12-01T06:42:16;3211.44;;;3.03;100.00
6034;BME280;3045;43.226;27.858;2022-12-01T06:44:43;3528.16;;;3.10;100.00
6034;BME280;3045;43.226;27.858;2022-12-01T06:47:10;4159.78;;;3.06;100.00
6034;BME280;3045;43.226;27.858;2022-12-01T06:49:37;3844.25;;;3.11;100.00
6034;BME280;3045;43.226;27.858;2022-12-01T06:52:04;3844.97;;;3.17;100.00
6034;BME280;3045;43.226;27.858;2022-12-01T06:54:32;4161.16;;;3.18;100.00
6034;BME280;3045;43.226;27.858;2022-12-01T06:57:04;3529.34;;;3.21;100.00
6034;BME280;3045;43.226;27.858;2022-12-01T06:59:31;3529.81;;;3.26;100.00
6034;BME280;3045;43.226;27.858;2022-12-01T07:01:58;6055.09;;;2.95;100.00
6034;BME280;3045;43.226;27.858;2022-12-01T07:04:25;4793.13;;;3.15;100.00
6034;BME280;3045;43.226;27.858;2022-12-01T07:06:52;3530.50;;;3.33;100.00
6034;BME280;3045;43.226;27.858;2022-12-01T07:09:19;2898.34;;;3.33;100.00
6034;BME280;3045;43.226;27.858;2022-12-01T07:11:47;5104.34;;;2.78;100.00
6034;BME280;3045;43.226;27.858;2022-12-01T07:14:17;5108.06;;;3.06;100.00
6034;BME280;3045;43.226;27.858;2022-12-01T07:16:45;3844.88;;;3.16;100.00
6034;BME280;3045;43.226;27.858;2022-12-01T07:19:12;2897.47;;;3.24;100.00
6034;BME280;3045;43.226;27.858;2022-12-01T07:21:38;2266.53;;;3.37;100.00
6034;BME280;3045;43.226;27.858;2022-12-01T07:24:06;4160.78;;;3.15;100.00
6034;BME280;3045;43.226;27.858;2022-12-01T07:26:33;3529.44;;;3.22;100.00
6034;BME280;3045;43.226;27.858;2022-12-01T07:29:02;2266.16;;;3.32;100.00
6034;BME280;3045;43.226;27.858;2022-12-01T07:31:29;1950.63;;;3.38;100.00
6034;BME280;3045;43.226;27.858;2022-12-01T07:33:56;2266.75;;;3.39;100.00
6034;BME280;3045;43.226;27.858;2022-12-01T07:36:23;2267.06;;;3.43;100.00
6034;BME280;3045;43.226;27.858;2022-12-01T07:38:49;1951.31;;;3.47;100.00
6034;BME280;3045;43.226;27.858;2022-12-01T07:41:17;1951.81;;;3.53;100.00
6034;BME280;3045;43.226;27.858;2022-12-01T07:43:45;1636.88;;;3.68;100.00
6034;BME280;3045;43.226;27.858;2022-12-01T07:46:14;1952.59;;;3.62;100.00
6034;BME280;3045;43.226;27.858;2022-12-01T07:48:43;1951.13;;;3.44;100.00
6034;BME280;3045;43.226;27.858;2022-12-01T07:51:12;1953.78;;;3.77;100.00
6034;BME280;3045;43.226;27.858;2022-12-01T07:53:41;1953.66;;;3.76;100.00
6034;BME280;3045;43.226;27.858;2022-12-01T07:56:08;1321.63;;;3.80;100.00
6034;BME280;3045;43.226;27.858;2022-12-01T07:58:35;1953.16;;;3.69;100.00
6034;BME280;3045;43.226;27.858;2022-12-01T08:01:05;2585.50;;;3.68;100.00
6034;BME280;3045;43.226;27.858;2022-12-01T08:03:36;2584.66;;;3.59;100.00
6034;BME280;3045;43.226;27.858;2022-12-01T08:06:04;2584.53;;;3.58;100.00
6034;BME280;3045;43.226;27.858;2022-12-01T08:08:32;3215.72;;;3.46;100.00
6034;BME280;3045;43.226;27.858;2022-12-01T08:11:00;1952.31;;;3.59;100.00
6034;BME280;3045;43.226;27.858;2022-12-01T08:13:27;1320.41;;;3.63;100.00
6034;BME280;3045;43.226;27.858;2022-12-01T08:15:55;1004.41;;;3.64;100.00
6034;BME280;3045;43.226;27.858;2022-12-01T08:18:23;373.06;;;3.77;100.00
6034;BME280;3045;43.226;27.858;2022-12-01T08:20:55;373.69;;;3.88;100.00
6034;BME280;3045;43.226;27.858;2022-12-01T08:23:22;1005.94;;;3.88;100.00
6034;BME280;3045;43.226;27.858;2022-12-01T08:25:49;1954.47;;;3.86;100.00
6034;BME280;3045;43.226;27.858;2022-12-01T08:28:16;1322.22;;;3.89;100.00
6034;BME280;3045;43.226;27.858;2022-12-01T08:30:43;690.13;;;3.93;100.00
6034;BME280;3045;43.226;27.858;2022-12-01T08:33:10;1322.03;;;3.86;100.00
6034;BME280;3045;43.226;27.858;2022-12-01T08:35:37;689.13;;;3.77;100.00
6034;BME280;3045;43.226;27.858;2022-12-01T08:38:05;-258.28;;;3.93;100.00
6034;BME280;3045;43.226;27.858;2022-12-01T08:40:32;-890.19;;;3.99;100.00
6034;BME280;3045;43.226;27.858;2022-12-01T08:42:59;-573.97;;;4.03;100.00
6034;BME280;3045;43.226;27.858;2022-12-01T08:45:26;-1205.81;;;4.13;100.00
6034;BME280;3045;43.226;27.858;2022-12-01T08:47:53;-889.69;;;4.13;100.00
6034;BME280;3045;43.226;27.858;2022-12-01T08:50:23;58.44;;;4.05;100.00
6034;BME280;3045;43.226;27.858;2022-12-01T08:52:50;-573.72;;;4.09;100.00
6034;BME280;3045;43.226;27.858;2022-12-01T08:55:19;-573.56;;;4.13;100.00
6034;BME280;3045;43.226;27.858;2022-12-01T08:57:47;-1521.97;;;4.09;100.00
6034;BME280;3045;43.226;27.858;2022-12-01T09:00:15;-1205.91;;;4.09;100.00
6034;BME280;3045;43.226;27.858;2022-12-01T09:02:41;-257.72;;;4.05;100.00
6034;BME280;3045;43.226;27.858;2022-12-01T09:05:08;-1838.16;;;4.02;100.00
6034;BME280;3045;43.226;27.858;2022-12-01T09:07:35;372.34;;;3.64;100.00
6034;BME280;3045;43.226;27.858;2022-12-01T09:10:03;374.03;;;3.94;100.00
6034;BME280;3045;43.226;27.858;2022-12-01T09:12:32;-1522.28;;;3.97;100.00
6034;BME280;3045;43.226;27.858;2022-12-01T09:15:02;-2785.88;;;4.25;100.00
6034;BME280;3045;43.226;27.858;2022-12-01T09:17:30;-2785.88;;;4.24;100.00
6034;BME280;3045;43.226;27.858;2022-12-01T09:19:57;-2785.84;;;4.32;100.00
6034;BME280;3045;43.226;27.858;2022-12-01T09:22:24;-1521.69;;;4.22;100.00
6034;BME280;3045;43.226;27.858;2022-12-01T09:24:55;-1205.69;;;4.18;100.00
6034;BME280;3045;43.226;27.858;2022-12-01T09:27:22;59.34;;;4.24;100.00
6034;BME280;3045;43.226;27.858;2022-12-01T09:29:50;691.34;;;4.13;100.00
6034;BME280;3045;43.226;27.858;2022-12-01T09:32:17;-258.00;;;3.99;100.00
6034;BME280;3045;43.226;27.858;2022-12-01T09:34:44;-2154.00;;;4.11;100.00
6034;BME280;3045;43.226;27.858;2022-12-01T09:37:11;-2785.94;;;4.05;100.00
6034;BME280;3045;43.226;27.858;2022-12-01T09:39:40;-2154.06;;;4.07;100.00
6034;BME280;3045;43.226;27.858;2022-12-01T09:42:12;-1206.00;;;4.07;100.00
6034;BME280;3045;43.226;27.858;2022-12-01T09:44:44;-2469.91;;;4.19;100.00
6034;BME280;3045;43.226;27.858;2022-12-01T09:47:18;-3733.88;;;4.35;100.00
6034;BME280;3045;43.226;27.858;2022-12-01T09:49:51;-4365.94;;;4.44;100.00
6034;BME280;3045;43.226;27.858;2022-12-01T09:52:22;-4366.16;;;4.54;100.00
6034;BME280;3045;43.226;27.858;2022-12-01T09:54:51;-3101.91;;;4.59;100.00
6034;BME280;3045;43.226;27.858;2022-12-01T09:57:27;-2785.72;;;4.62;100.00
6034;BME280;3045;43.226;27.858;2022-12-01T09:59:56;-3418.06;;;4.63;100.00
6034;BME280;3045;43.226;27.858;2022-12-01T10:02:31;-3101.91;;;4.64;100.00
6034;BME280;3045;43.226;27.858;2022-12-01T10:05:02;-3734.22;;;4.66;100.00
6034;BME280;3045;43.226;27.858;2022-12-01T10:07:33;-4998.34;;;4.62;100.00
6034;BME280;3045;43.226;27.858;2022-12-01T10:10:05;-5946.69;;;4.74;100.00
6034;BME280;3045;43.226;27.858;2022-12-01T10:12:34;-5946.97;;;4.80;100.00
6034;BME280;3045;43.226;27.858;2022-12-01T10:15:14;-4998.25;;;4.59;100.00
6034;BME280;3045;43.226;27.858;2022-12-01T10:17:54;-5946.50;;;4.70;100.00
6034;BME280;3045;43.226;27.858;2022-12-01T10:20:25;-6577.94;;;4.64;100.00
6034;BME280;3045;43.226;27.858;2022-12-01T10:25:54;-7209.16;;;4.57;100.00
6034;BME280;3045;43.226;27.858;2022-12-01T10:28:39;-6576.88;;;4.45;100.00
6034;BME280;3045;43.226;27.858;2022-12-01T10:31:16;-6262.19;;;4.66;100.00
6034;BME280;3045;43.226;27.858;2022-12-01T10:33:59;-4997.78;;;4.44;100.00
6034;BME280;3045;43.226;27.858;2022-12-01T10:36:27;-4997.16;;;4.25;100.00
6034;BME280;3045;43.226;27.858;2022-12-01T10:38:56;-5313.28;;;4.35;100.00
6034;BME280;3045;43.226;27.858;2022-12-01T10:41:25;-5945.13;;;4.40;100.00
6034;BME280;3045;43.226;27.858;2022-12-01T10:43:56;-6261.59;;;4.54;100.00
6034;BME280;3045;43.226;27.858;2022-12-01T10:46:28;-5313.97;;;4.53;100.00
6034;BME280;3045;43.226;27.858;2022-12-01T10:48:58;-5629.97;;;4.55;100.00
6034;BME280;3045;43.226;27.858;2022-12-01T10:51:26;-4997.63;;;4.40;100.00
6034;BME280;3045;43.226;27.858;2022-12-01T10:53:57;-4049.63;;;4.25;100.00
6034;BME280;3045;43.226;27.858;2022-12-01T10:56:24;-4365.72;;;4.35;100.00
6034;BME280;3045;43.226;27.858;2022-12-01T10:58:54;-3733.66;;;4.18;100.00
6034;BME280;3045;43.226;27.858;2022-12-01T11:01:23;-3417.94;;;4.43;100.00
6034;BME280;3045;43.226;27.858;2022-12-01T11:03:53;-2785.81;;;4.37;100.00
6034;BME280;3045;43.226;27.858;2022-12-01T11:06:24;-2153.63;;;4.37;100.00
6034;BME280;3045;43.226;27.858;2022-12-01T11:08:54;-1521.50;;;4.30;100.00
6034;BME280;3045;43.226;27.858;2022-12-01T11:11:29;-2153.59;;;4.40;100.00
6034;BME280;3045;43.226;27.858;2022-12-01T11:13:59;-1837.41;;;4.41;100.00
6034;BME280;3045;43.226;27.858;2022-12-01T11:16:36;-1521.38;;;4.34;100.00
6034;BME280;3045;43.226;27.858;2022-12-01T11:19:19;-1204.72;;;4.50;100.00
6034;BME280;3045;43.226;27.858;2022-12-01T11:21:48;-256.22;;;4.39;100.00
6034;BME280;3045;43.226;27.858;2022-12-01T11:24:39;-256.06;;;4.43;100.00
6034;BME280;3045;43.226;27.858;2022-12-01T11:27:14;375.53;;;4.22;100.00
6034;BME280;3045;43.226;27.858;2022-12-01T11:29:42;-256.13;;;4.41;100.00
6034;BME280;3045;43.226;27.858;2022-12-01T11:32:19;60.22;;;4.41;100.00
6034;BME280;3045;43.226;27.858;2022-12-01T11:34:52;-255.88;;;4.46;100.00
6034;BME280;3045;43.226;27.858;2022-12-01T11:37:24;-255.91;;;4.46;100.00
6034;BME280;3045;43.226;27.858;2022-12-01T11:39:52;60.59;;;4.48;100.00
6034;BME280;3045;43.226;27.858;2022-12-01T11:42:25;60.47;;;4.46;100.00
6034;BME280;3045;43.226;27.858;2022-12-01T11:44:54;377.44;;;4.56;100.00
6034;BME280;3045;43.226;27.858;2022-12-01T11:47:24;1009.66;;;4.44;100.00
6034;BME280;3045;43.226;27.858;2022-12-01T11:49:53;376.28;;;4.35;100.00
6034;BME280;3045;43.226;27.858;2022-12-01T11:52:28;-572.34;;;4.44;100.00
6034;BME280;3045;43.226;27.858;2022-12-01T11:54:58;-571.66;;;4.61;100.00
6034;BME280;3045;43.226;27.858;2022-12-01T11:57:28;-887.69;;;4.71;100.00
6034;BME280;3045;43.226;27.858;2022-12-01T11:59:55;-1836.47;;;4.88;100.00
6034;BME280;3045;43.226;27.858;2022-12-01T12:02:30;-2152.84;;;4.90;100.00
6034;BME280;3045;43.226;27.858;2022-12-01T12:07:58;-1204.16;;;4.69;100.00
6034;BME280;3045;43.226;27.858;2022-12-01T12:10:35;-1836.94;;;4.66;100.00
6034;BME280;3045;43.226;27.858;2022-12-01T12:13:21;-3418.09;;;4.69;100.00
6034;BME280;3045;43.226;27.858;2022-12-01T12:16:00;-3734.28;;;4.73;100.00
6034;BME280;3045;43.226;27.858;2022-12-01T12:18:48;-3418.16;;;4.80;100.00
6034;BME280;3045;43.226;27.858;2022-12-01T12:21:28;-1837.00;;;4.62;100.00
6034;BME280;3045;43.226;27.858;2022-12-01T12:24:26;-1520.78;;;4.59;100.00
6034;BME280;3045;43.226;27.858;2022-12-01T12:27:03;-571.94;;;4.54;100.00
6034;BME280;3045;43.226;27.858;2022-12-01T12:29:45;-888.34;;;4.52;100.00
6034;BME280;3045;43.226;27.858;2022-12-01T12:32:42;-2469.53;;;4.60;100.00
6034;BME280;3045;43.226;27.858;2022-12-01T12:35:24;-2469.50;;;4.62;100.00
6034;BME280;3045;43.226;27.858;2022-12-01T12:38:03;-3101.88;;;4.52;100.00
6034;BME280;3045;43.226;27.858;2022-12-01T12:40:45;-3101.91;;;4.66;100.00
6034;BME280;3045;43.226;27.858;2022-12-01T12:43:24;-3101.91;;;4.61;100.00
6034;BME280;3045;43.226;27.858;2022-12-01T12:46:06;-3101.91;;;4.74;100.00
6034;BME280;3045;43.226;27.858;2022-12-01T12:48:57;-2785.63;;;4.83;100.00
6034;BME280;3045;43.226;27.858;2022-12-01T12:51:33;-2153.09;;;4.74;100.00
6034;BME280;3045;43.226;27.858;2022-12-01T12:54:12;-2785.69;;;4.69;100.00
6034;BME280;3045;43.226;27.858;2022-12-01T12:56:48;-1836.81;;;4.72;100.00
6034;BME280;3045;43.226;27.858;2022-12-01T12:59:21;-2153.19;;;4.68;100.00
6034;BME280;3045;43.226;27.858;2022-12-01T13:01:57;-2785.69;;;4.66;100.00
6034;BME280;3045;43.226;27.858;2022-12-01T13:04:33;-3101.91;;;4.71;100.00
6034;BME280;3045;43.226;27.858;2022-12-01T13:07:05;-2785.75;;;4.56;100.00
6034;BME280;3045;43.226;27.858;2022-12-01T13:09:37;-4050.13;;;4.55;100.00
6034;BME280;3045;43.226;27.858;2022-12-01T13:12:11;-4366.44;;;4.69;100.00
6034;BME280;3045;43.226;27.858;2022-12-01T13:14:43;-4050.50;;;4.76;100.00
6034;BME280;3045;43.226;27.858;2022-12-01T13:17:15;-4050.22;;;4.60;100.00
6034;BME280;3045;43.226;27.858;2022-12-01T13:19:45;-4366.78;;;4.84;100.00
6034;BME280;3045;43.226;27.858;2022-12-01T13:22:13;-3101.91;;;4.78;100.00
6034;BME280;3045;43.226;27.858;2022-12-01T13:24:41;-3101.91;;;4.67;100.00
6034;BME280;3045;43.226;27.858;2022-12-01T13:27:14;-4366.59;;;4.75;100.00
6034;BME280;3045;43.226;27.858;2022-12-01T13:29:44;-4366.72;;;4.82;100.00
6034;BME280;3045;43.226;27.858;2022-12-01T13:32:26;-4366.78;;;4.84;100.00
6034;BME280;3045;43.226;27.858;2022-12-01T13:34:54;-4999.28;;;4.92;100.00
6034;BME280;3045;43.226;27.858;2022-12-01T13:37:25;-4366.94;;;4.91;100.00
6034;BME280;3045;43.226;27.858;2022-12-01T13:39:54;-2153.06;;;4.76;100.00
6034;BME280;3045;43.226;27.858;2022-12-01T13:42:24;-4366.88;;;4.88;100.00
6034;BME280;3045;43.226;27.858;2022-12-01T13:44:53;-4999.13;;;4.87;100.00
6034;BME280;3045;43.226;27.858;2022-12-01T13:47:36;-5947.41;;;4.89;100.00